sensor_id;sensor_type;location;lat;lon;timestamp;P1;durP1;ratioP1;P2;durP2;ratioP2
18449;SDS011;9354;50.194;7.690;2023-04-25T00:00:54;14.93;;;5.73;;
18449;SDS011;9354;50.194;7.690;2023-04-25T00:03:21;9.50;;;5.30;;
18449;SDS011;9354;50.194;7.690;2023-04-25T00:05:50;11.87;;;5.93;;
18449;SDS011;9354;50.194;7.690;2023-04-25T00:08:18;9.37;;;5.77;;
18449;SDS011;9354;50.194;7.690;2023-04-25T00:10:47;9.70;;;5.60;;
18449;SDS011;9354;50.194;7.690;2023-04-25T00:13:15;8.73;;;5.13;;
18449;SDS011;9354;50.194;7.690;2023-04-25T00:15:43;9.53;;;5.80;;
18449;SDS011;9354;50.194;7.690;2023-04-25T00:18:11;8.67;;;5.07;;
18449;SDS011;9354;50.194;7.690;2023-04-25T00:20:39;10.07;;;5.50;;
18449;SDS011;9354;50.194;7.690;2023-04-25T00:23:10;9.53;;;4.87;;
18449;SDS011;9354;50.194;7.690;2023-04-25T00:25:37;9.47;;;5.47;;
18449;SDS011;9354;50.194;7.690;2023-04-25T00:28:06;9.07;;;5.40;;
18449;SDS011;9354;50.194;7.690;2023-04-25T00:30:33;8.73;;;5.50;;
18449;SDS011;9354;50.194;7.690;2023-04-25T00:33:00;12.10;;;5.43;;
18449;SDS011;9354;50.194;7.690;2023-04-25T00:35:28;8.97;;;5.20;;
18449;SDS011;9354;50.194;7.690;2023-04-25T00:37:55;9.13;;;5.10;;
18449;SDS011;9354;50.194;7.690;2023-04-25T00:40:23;11.40;;;5.37;;
18449;SDS011;9354;50.194;7.690;2023-04-25T00:42:50;8.97;;;5.23;;
18449;SDS011;9354;50.194;7.690;2023-04-25T00:45:20;9.17;;;5.20;;
18449;SDS011;9354;50.194;7.690;2023-04-25T00:47:48;12.07;;;5.97;;
18449;SDS011;9354;50.194;7.690;2023-04-25T00:50:15;9.90;;;5.83;;
18449;SDS011;9354;50.194;7.690;2023-04-25T00:52:43;11.00;;;5.97;;
18449;SDS011;9354;50.194;7.690;2023-04-25T00:55:11;9.83;;;5.53;;
18449;SDS011;9354;50.194;7.690;2023-04-25T00:57:41;13.07;;;5.63;;
18449;SDS011;9354;50.194;7.690;2023-04-25T01:00:09;12.43;;;5.70;;
18449;SDS011;9354;50.194;7.690;2023-04-25T01:02:40;9.53;;;5.70;;
18449;SDS011;9354;50.194;7.690;2023-04-25T01:05:08;10.37;;;5.77;;
18449;SDS011;9354;50.194;7.690;2023-04-25T01:07:36;12.73;;;6.00;;
18449;SDS011;9354;50.194;7.690;2023-04-25T01:10:03;12.07;;;6.00;;
18449;SDS011;9354;50.194;7.690;2023-04-25T01:12:32;8.80;;;5.40;;
18449;SDS011;9354;50.194;7.690;2023-04-25T01:15:00;12.53;;;5.80;;
18449;SDS011;9354;50.194;7.690;2023-04-25T01:17:28;9.63;;;5.57;;
18449;SDS011;9354;50.194;7.690;2023-04-25T01:19:58;8.43;;;5.33;;
18449;SDS011;9354;50.194;7.690;2023-04-25T01:22:27;13.10;;;5.37;;
18449;SDS011;9354;50.194;7.690;2023-04-25T01:24:54;10.83;;;6.00;;
18449;SDS011;9354;50.194;7.690;2023-04-25T01:27:22;9.57;;;5.43;;
18449;SDS011;9354;50.194;7.690;2023-04-25T01:29:50;13.13;;;5.63;;
18449;SDS011;9354;50.194;7.690;2023-04-25T01:32:18;11.10;;;6.03;;
18449;SDS011;9354;50.194;7.690;2023-04-25T01:34:46;14.47;;;6.53;;
18449;SDS011;9354;50.194;7.690;2023-04-25T01:37:13;14.40;;;6.40;;
18449;SDS011;9354;50.194;7.690;2023-04-25T01:39:42;17.90;;;6.00;;
18449;SDS011;9354;50.194;7.690;2023-04-25T01:42:10;16.67;;;7.07;;
18449;SDS011;9354;50.194;7.690;2023-04-25T01:44:37;18.70;;;6.37;;
18449;SDS011;9354;50.194;7.690;2023-04-25T01:47:04;14.87;;;6.30;;
18449;SDS011;9354;50.194;7.690;2023-04-25T01:49:32;11.70;;;5.63;;
18449;SDS011;9354;50.194;7.690;2023-04-25T01:51:59;13.10;;;6.23;;
18449;SDS011;9354;50.194;7.690;2023-04-25T01:54:27;15.60;;;6.20;;
18449;SDS011;9354;50.194;7.690;2023-04-25T01:56:56;14.23;;;6.30;;
18449;SDS011;9354;50.194;7.690;2023-04-25T01:59:24;14.47;;;6.40;;
18449;SDS011;9354;50.194;7.690;2023-04-25T02:01:51;13.97;;;6.27;;
18449;SDS011;9354;50.194;7.690;2023-04-25T02:04:18;11.73;;;6.00;;
18449;SDS011;9354;50.194;7.690;2023-04-25T02:06:46;17.87;;;6.53;;
18449;SDS011;9354;50.194;7.690;2023-04-25T02:09:13;17.27;;;7.17;;
18449;SDS011;9354;50.194;7.690;2023-04-25T02:11:41;15.77;;;6.73;;
18449;SDS011;9354;50.194;7.690;2023-04-25T02:14:09;15.77;;;6.90;;
18449;SDS011;9354;50.194;7.690;2023-04-25T02:16:37;18.63;;;7.07;;
18449;SDS011;9354;50.194;7.690;2023-04-25T02:19:05;19.23;;;7.57;;
18449;SDS011;9354;50.194;7.690;2023-04-25T02:21:32;19.03;;;7.27;;
18449;SDS011;9354;50.194;7.690;2023-04-25T02:24:01;15.43;;;7.07;;
18449;SDS011;9354;50.194;7.690;2023-04-25T02:26:29;16.17;;;7.50;;
18449;SDS011;9354;50.194;7.690;2023-04-25T02:28:56;17.87;;;7.30;;
18449;SDS011;9354;50.194;7.690;2023-04-25T02:31:25;15.17;;;7.00;;
18449;SDS011;9354;50.194;7.690;2023-04-25T02:33:52;18.47;;;8.00;;
18449;SDS011;9354;50.194;7.690;2023-04-25T02:36:20;14.27;;;7.00;;
18449;SDS011;9354;50.194;7.690;2023-04-25T02:38:47;18.27;;;7.03;;
18449;SDS011;9354;50.194;7.690;2023-04-25T02:41:15;15.47;;;7.27;;
18449;SDS011;9354;50.194;7.690;2023-04-25T02:43:42;13.80;;;6.60;;
18449;SDS011;9354;50.194;7.690;2023-04-25T02:46:09;17.03;;;7.27;;
18449;SDS011;9354;50.194;7.690;2023-04-25T02:48:38;19.57;;;8.03;;
18449;SDS011;9354;50.194;7.690;2023-04-25T02:51:05;20.20;;;7.77;;
18449;SDS011;9354;50.194;7.690;2023-04-25T02:53:33;21.03;;;8.50;;
18449;SDS011;9354;50.194;7.690;2023-04-25T02:56:00;16.57;;;7.73;;
18449;SDS011;9354;50.194;7.690;2023-04-25T02:58:28;20.87;;;8.43;;
18449;SDS011;9354;50.194;7.690;2023-04-25T03:00:55;15.40;;;7.60;;
18449;SDS011;9354;50.194;7.690;2023-04-25T03:03:22;15.20;;;8.37;;
18449;SDS011;9354;50.194;7.690;2023-04-25T03:05:51;18.53;;;8.23;;
18449;SDS011;9354;50.194;7.690;2023-04-25T03:08:19;22.70;;;8.57;;
18449;SDS011;9354;50.194;7.690;2023-04-25T03:10:47;19.53;;;8.17;;
18449;SDS011;9354;50.194;7.690;2023-04-25T03:13:15;19.43;;;8.43;;
18449;SDS011;9354;50.194;7.690;2023-04-25T03:15:43;16.17;;;8.13;;
18449;SDS011;9354;50.194;7.690;2023-04-25T03:18:11;21.80;;;9.00;;
18449;SDS011;9354;50.194;7.690;2023-04-25T03:20:38;17.30;;;8.53;;
18449;SDS011;9354;50.194;7.690;2023-04-25T03:23:08;18.13;;;8.17;;
18449;SDS011;9354;50.194;7.690;2023-04-25T03:25:36;23.00;;;8.63;;
18449;SDS011;9354;50.194;7.690;2023-04-25T03:28:03;18.97;;;8.90;;
18449;SDS011;9354;50.194;7.690;2023-04-25T03:30:30;19.87;;;8.87;;
18449;SDS011;9354;50.194;7.690;2023-04-25T03:32:58;22.37;;;8.40;;
18449;SDS011;9354;50.194;7.690;2023-04-25T03:35:25;18.40;;;8.73;;
18449;SDS011;9354;50.194;7.690;2023-04-25T03:37:53;19.30;;;9.73;;
18449;SDS011;9354;50.194;7.690;2023-04-25T03:40:22;23.83;;;9.67;;
18449;SDS011;9354;50.194;7.690;2023-04-25T03:42:49;19.63;;;9.67;;
18449;SDS011;9354;50.194;7.690;2023-04-25T03:45:16;23.60;;;10.30;;
18449;SDS011;9354;50.194;7.690;2023-04-25T03:47:44;24.47;;;9.60;;
18449;SDS011;9354;50.194;7.690;2023-04-25T03:50:11;22.10;;;8.97;;
18449;SDS011;9354;50.194;7.690;2023-04-25T03:52:39;19.20;;;8.37;;
18449;SDS011;9354;50.194;7.690;2023-04-25T03:55:06;21.97;;;10.57;;
18449;SDS011;9354;50.194;7.690;2023-04-25T03:57:36;31.73;;;9.90;;
18449;SDS011;9354;50.194;7.690;2023-04-25T04:00:04;22.33;;;9.53;;
18449;SDS011;9354;50.194;7.690;2023-04-25T04:02:32;28.40;;;9.80;;
18449;SDS011;9354;50.194;7.690;2023-04-25T04:05:01;21.63;;;9.27;;
18449;SDS011;9354;50.194;7.690;2023-04-25T04:07:29;27.07;;;9.20;;
18449;SDS011;9354;50.194;7.690;2023-04-25T04:09:58;19.40;;;9.80;;
18449;SDS011;9354;50.194;7.690;2023-04-25T04:12:26;22.97;;;9.60;;
18449;SDS011;9354;50.194;7.690;2023-04-25T04:14:54;20.67;;;9.03;;
18449;SDS011;9354;50.194;7.690;2023-04-25T04:17:22;18.93;;;8.63;;
18449;SDS011;9354;50.194;7.690;2023-04-25T04:19:49;21.70;;;9.90;;
18449;SDS011;9354;50.194;7.690;2023-04-25T04:22:16;21.57;;;8.83;;
18449;SDS011;9354;50.194;7.690;2023-04-25T04:24:44;23.30;;;9.13;;
18449;SDS011;9354;50.194;7.690;2023-04-25T04:27:13;22.53;;;8.73;;
18449;SDS011;9354;50.194;7.690;2023-04-25T04:29:40;20.77;;;8.17;;
18449;SDS011;9354;50.194;7.690;2023-04-25T04:32:09;19.40;;;8.43;;
18449;SDS011;9354;50.194;7.690;2023-04-25T04:34:37;21.53;;;7.27;;
18449;SDS011;9354;50.194;7.690;2023-04-25T04:37:04;22.13;;;7.67;;
18449;SDS011;9354;50.194;7.690;2023-04-25T04:39:32;22.47;;;7.67;;
18449;SDS011;9354;50.194;7.690;2023-04-25T04:42:00;19.63;;;6.80;;
18449;SDS011;9354;50.194;7.690;2023-04-25T04:44:28;21.63;;;7.73;;
18449;SDS011;9354;50.194;7.690;2023-04-25T04:46:58;22.37;;;6.63;;
18449;SDS011;9354;50.194;7.690;2023-04-25T04:49:26;20.03;;;6.97;;
18449;SDS011;9354;50.194;7.690;2023-04-25T04:51:54;24.80;;;7.20;;
18449;SDS011;9354;50.194;7.690;2023-04-25T04:54:21;20.17;;;7.13;;
18449;SDS011;9354;50.194;7.690;2023-04-25T04:56:49;22.40;;;7.80;;
18449;SDS011;9354;50.194;7.690;2023-04-25T04:59:17;20.73;;;6.70;;
18449;SDS011;9354;50.194;7.690;2023-04-25T05:01:45;15.27;;;5.80;;
18449;SDS011;9354;50.194;7.690;2023-04-25T05:04:12;19.40;;;6.70;;
18449;SDS011;9354;50.194;7.690;2023-04-25T05:06:41;22.30;;;6.27;;
18449;SDS011;9354;50.194;7.690;2023-04-25T05:09:09;15.47;;;6.40;;
18449;SDS011;9354;50.194;7.690;2023-04-25T05:11:37;21.83;;;6.20;;
18449;SDS011;9354;50.194;7.690;2023-04-25T05:14:04;15.77;;;6.20;;
18449;SDS011;9354;50.194;7.690;2023-04-25T05:16:31;20.40;;;7.40;;
18449;SDS011;9354;50.194;7.690;2023-04-25T05:18:59;14.20;;;5.33;;
18449;SDS011;9354;50.194;7.690;2023-04-25T05:21:26;17.30;;;6.13;;
18449;SDS011;9354;50.194;7.690;2023-04-25T05:23:55;21.83;;;6.03;;
18449;SDS011;9354;50.194;7.690;2023-04-25T05:26:22;20.10;;;5.27;;
18449;SDS011;9354;50.194;7.690;2023-04-25T05:28:50;17.17;;;5.57;;
18449;SDS011;9354;50.194;7.690;2023-04-25T05:31:17;19.70;;;6.47;;
18449;SDS011;9354;50.194;7.690;2023-04-25T05:33:45;15.93;;;5.57;;
18449;SDS011;9354;50.194;7.690;2023-04-25T05:36:12;25.80;;;8.27;;
18449;SDS011;9354;50.194;7.690;2023-04-25T05:38:39;18.77;;;5.53;;
18449;SDS011;9354;50.194;7.690;2023-04-25T05:41:08;24.23;;;5.87;;
18449;SDS011;9354;50.194;7.690;2023-04-25T05:43:35;18.87;;;5.67;;
18449;SDS011;9354;50.194;7.690;2023-04-25T05:46:03;14.10;;;5.17;;
18449;SDS011;9354;50.194;7.690;2023-04-25T05:48:31;12.60;;;5.00;;
18449;SDS011;9354;50.194;7.690;2023-04-25T05:50:58;18.33;;;5.60;;
18449;SDS011;9354;50.194;7.690;2023-04-25T05:53:26;15.13;;;5.87;;
18449;SDS011;9354;50.194;7.690;2023-04-25T05:55:53;16.10;;;6.73;;
18449;SDS011;9354;50.194;7.690;2023-04-25T05:58:22;12.50;;;5.87;;
18449;SDS011;9354;50.194;7.690;2023-04-25T06:00:49;22.27;;;8.10;;
18449;SDS011;9354;50.194;7.690;2023-04-25T06:03:17;19.30;;;6.43;;
18449;SDS011;9354;50.194;7.690;2023-04-25T06:05:44;17.97;;;7.50;;
18449;SDS011;9354;50.194;7.690;2023-04-25T06:08:12;17.40;;;6.37;;
18449;SDS011;9354;50.194;7.690;2023-04-25T06:10:39;24.00;;;6.03;;
18449;SDS011;9354;50.194;7.690;2023-04-25T06:13:06;23.23;;;6.83;;
18449;SDS011;9354;50.194;7.690;2023-04-25T06:15:35;21.60;;;7.53;;
18449;SDS011;9354;50.194;7.690;2023-04-25T06:18:03;20.70;;;7.60;;
18449;SDS011;9354;50.194;7.690;2023-04-25T06:20:30;16.47;;;7.30;;
18449;SDS011;9354;50.194;7.690;2023-04-25T06:22:58;17.27;;;5.33;;
18449;SDS011;9354;50.194;7.690;2023-04-25T06:25:25;23.13;;;7.03;;
18449;SDS011;9354;50.194;7.690;2023-04-25T06:27:52;17.80;;;5.90;;
18449;SDS011;9354;50.194;7.690;2023-04-25T06:30:20;17.07;;;5.97;;
18449;SDS011;9354;50.194;7.690;2023-04-25T06:32:52;16.30;;;6.30;;
18449;SDS011;9354;50.194;7.690;2023-04-25T06:35:20;24.43;;;6.30;;
18449;SDS011;9354;50.194;7.690;2023-04-25T06:37:47;17.73;;;6.50;;
18449;SDS011;9354;50.194;7.690;2023-04-25T06:40:14;27.63;;;7.73;;
18449;SDS011;9354;50.194;7.690;2023-04-25T06:42:43;26.53;;;10.13;;
18449;SDS011;9354;50.194;7.690;2023-04-25T06:45:10;21.93;;;6.00;;
18449;SDS011;9354;50.194;7.690;2023-04-25T06:47:38;16.73;;;6.07;;
18449;SDS011;9354;50.194;7.690;2023-04-25T06:50:07;17.47;;;6.40;;
18449;SDS011;9354;50.194;7.690;2023-04-25T06:52:35;11.20;;;5.47;;
18449;SDS011;9354;50.194;7.690;2023-04-25T06:55:02;14.50;;;6.20;;
18449;SDS011;9354;50.194;7.690;2023-04-25T06:57:31;11.47;;;4.17;;
18449;SDS011;9354;50.194;7.690;2023-04-25T06:59:58;12.20;;;5.50;;
18449;SDS011;9354;50.194;7.690;2023-04-25T07:02:25;14.37;;;5.33;;
18449;SDS011;9354;50.194;7.690;2023-04-25T07:04:53;15.13;;;4.47;;
18449;SDS011;9354;50.194;7.690;2023-04-25T07:07:23;15.10;;;5.23;;
18449;SDS011;9354;50.194;7.690;2023-04-25T07:09:50;9.73;;;4.53;;
18449;SDS011;9354;50.194;7.690;2023-04-25T07:12:17;9.60;;;4.13;;
18449;SDS011;9354;50.194;7.690;2023-04-25T07:14:45;15.10;;;4.90;;
18449;SDS011;9354;50.194;7.690;2023-04-25T07:17:12;12.83;;;5.00;;
18449;SDS011;9354;50.194;7.690;2023-04-25T07:19:40;9.27;;;4.50;;
18449;SDS011;9354;50.194;7.690;2023-04-25T07:22:09;13.77;;;4.43;;
18449;SDS011;9354;50.194;7.690;2023-04-25T07:24:37;16.80;;;5.13;;
18449;SDS011;9354;50.194;7.690;2023-04-25T07:27:05;14.03;;;5.53;;
18449;SDS011;9354;50.194;7.690;2023-04-25T07:29:32;18.97;;;5.27;;
18449;SDS011;9354;50.194;7.690;2023-04-25T07:32:02;13.73;;;4.90;;
18449;SDS011;9354;50.194;7.690;2023-04-25T07:34:30;10.03;;;4.97;;
18449;SDS011;9354;50.194;7.690;2023-04-25T07:36:57;13.30;;;4.87;;
18449;SDS011;9354;50.194;7.690;2023-04-25T07:39:25;19.53;;;5.30;;
18449;SDS011;9354;50.194;7.690;2023-04-25T07:41:54;15.47;;;5.73;;
18449;SDS011;9354;50.194;7.690;2023-04-25T07:44:23;10.20;;;4.37;;
18449;SDS011;9354;50.194;7.690;2023-04-25T07:46:51;14.37;;;5.17;;
18449;SDS011;9354;50.194;7.690;2023-04-25T07:49:18;16.00;;;5.13;;
18449;SDS011;9354;50.194;7.690;2023-04-25T07:51:46;9.90;;;4.57;;
18449;SDS011;9354;50.194;7.690;2023-04-25T07:54:14;11.83;;;5.10;;
18449;SDS011;9354;50.194;7.690;2023-04-25T07:56:42;13.47;;;5.33;;
18449;SDS011;9354;50.194;7.690;2023-04-25T07:59:10;10.47;;;5.00;;
18449;SDS011;9354;50.194;7.690;2023-04-25T08:01:38;15.83;;;5.37;;
18449;SDS011;9354;50.194;7.690;2023-04-25T08:04:05;14.57;;;5.07;;
18449;SDS011;9354;50.194;7.690;2023-04-25T08:06:32;17.00;;;5.67;;
18449;SDS011;9354;50.194;7.690;2023-04-25T08:09:00;15.40;;;4.97;;
18449;SDS011;9354;50.194;7.690;2023-04-25T08:11:28;11.60;;;5.50;;
18449;SDS011;9354;50.194;7.690;2023-04-25T08:13:55;16.27;;;5.60;;
18449;SDS011;9354;50.194;7.690;2023-04-25T08:16:24;14.67;;;5.70;;
18449;SDS011;9354;50.194;7.690;2023-04-25T08:18:52;17.10;;;5.43;;
18449;SDS011;9354;50.194;7.690;2023-04-25T08:21:19;16.63;;;5.57;;
18449;SDS011;9354;50.194;7.690;2023-04-25T08:23:47;17.60;;;6.80;;
18449;SDS011;9354;50.194;7.690;2023-04-25T08:26:15;28.37;;;10.10;;
18449;SDS011;9354;50.194;7.690;2023-04-25T08:28:42;15.63;;;5.90;;
18449;SDS011;9354;50.194;7.690;2023-04-25T08:31:09;19.63;;;5.50;;
18449;SDS011;9354;50.194;7.690;2023-04-25T08:33:38;13.03;;;5.60;;
18449;SDS011;9354;50.194;7.690;2023-04-25T08:36:06;14.83;;;5.00;;
18449;SDS011;9354;50.194;7.690;2023-04-25T08:38:33;12.07;;;5.13;;
18449;SDS011;9354;50.194;7.690;2023-04-25T08:41:02;13.47;;;5.23;;
18449;SDS011;9354;50.194;7.690;2023-04-25T08:43:31;11.20;;;4.67;;
18449;SDS011;9354;50.194;7.690;2023-04-25T08:45:59;13.03;;;4.90;;
18449;SDS011;9354;50.194;7.690;2023-04-25T08:48:27;12.70;;;4.40;;
18449;SDS011;9354;50.194;7.690;2023-04-25T08:50:56;20.20;;;5.17;;
18449;SDS011;9354;50.194;7.690;2023-04-25T08:53:25;11.43;;;5.00;;
18449;SDS011;9354;50.194;7.690;2023-04-25T08:55:54;11.47;;;4.67;;
18449;SDS011;9354;50.194;7.690;2023-04-25T08:58:22;16.77;;;4.83;;
18449;SDS011;9354;50.194;7.690;2023-04-25T09:00:49;15.27;;;4.40;;
18449;SDS011;9354;50.194;7.690;2023-04-25T09:03:18;17.27;;;4.70;;
18449;SDS011;9354;50.194;7.690;2023-04-25T09:05:45;20.80;;;4.20;;
18449;SDS011;9354;50.194;7.690;2023-04-25T09:08:14;10.97;;;4.53;;
18449;SDS011;9354;50.194;7.690;2023-04-25T09:10:42;15.13;;;5.20;;
18449;SDS011;9354;50.194;7.690;2023-04-25T09:13:10;11.47;;;4.30;;
18449;SDS011;9354;50.194;7.690;2023-04-25T09:15:46;15.17;;;4.50;;
18449;SDS011;9354;50.194;7.690;2023-04-25T09:18:21;11.73;;;4.20;;
18449;SDS011;9354;50.194;7.690;2023-04-25T09:20:51;15.77;;;4.03;;
18449;SDS011;9354;50.194;7.690;2023-04-25T09:23:21;10.27;;;3.63;;
18449;SDS011;9354;50.194;7.690;2023-04-25T09:25:50;12.70;;;4.27;;
18449;SDS011;9354;50.194;7.690;2023-04-25T09:28:22;18.07;;;4.53;;
18449;SDS011;9354;50.194;7.690;2023-04-25T09:30:54;13.23;;;4.53;;
18449;SDS011;9354;50.194;7.690;2023-04-25T09:33:26;17.70;;;4.60;;
18449;SDS011;9354;50.194;7.690;2023-04-25T09:36:01;19.67;;;4.83;;
18449;SDS011;9354;50.194;7.690;2023-04-25T09:38:31;17.23;;;4.57;;
18449;SDS011;9354;50.194;7.690;2023-04-25T09:41:06;14.53;;;3.77;;
18449;SDS011;9354;50.194;7.690;2023-04-25T09:43:34;13.03;;;4.33;;
18449;SDS011;9354;50.194;7.690;2023-04-25T09:46:01;10.77;;;3.60;;
18449;SDS011;9354;50.194;7.690;2023-04-25T09:48:29;9.30;;;4.37;;
18449;SDS011;9354;50.194;7.690;2023-04-25T09:51:09;17.57;;;8.03;;
18449;SDS011;9354;50.194;7.690;2023-04-25T09:53:40;12.90;;;3.93;;
18449;SDS011;9354;50.194;7.690;2023-04-25T09:56:09;17.47;;;4.70;;
18449;SDS011;9354;50.194;7.690;2023-04-25T09:58:38;21.37;;;4.90;;
18449;SDS011;9354;50.194;7.690;2023-04-25T10:01:07;19.73;;;6.73;;
18449;SDS011;9354;50.194;7.690;2023-04-25T10:03:36;22.57;;;8.13;;
18449;SDS011;9354;50.194;7.690;2023-04-25T10:06:07;15.93;;;7.10;;
18449;SDS011;9354;50.194;7.690;2023-04-25T10:08:36;13.23;;;4.03;;
18449;SDS011;9354;50.194;7.690;2023-04-25T10:11:07;14.37;;;4.33;;
18449;SDS011;9354;50.194;7.690;2023-04-25T10:13:35;13.97;;;3.47;;
18449;SDS011;9354;50.194;7.690;2023-04-25T10:16:03;15.43;;;3.73;;
18449;SDS011;9354;50.194;7.690;2023-04-25T10:18:32;10.27;;;3.50;;
18449;SDS011;9354;50.194;7.690;2023-04-25T10:21:00;16.83;;;3.87;;
18449;SDS011;9354;50.194;7.690;2023-04-25T10:23:30;10.33;;;3.57;;
18449;SDS011;9354;50.194;7.690;2023-04-25T10:25:59;10.27;;;3.47;;
18449;SDS011;9354;50.194;7.690;2023-04-25T10:28:29;10.40;;;3.20;;
18449;SDS011;9354;50.194;7.690;2023-04-25T10:31:16;10.90;;;3.40;;
18449;SDS011;9354;50.194;7.690;2023-04-25T10:33:44;10.97;;;3.30;;
18449;SDS011;9354;50.194;7.690;2023-04-25T10:36:12;17.53;;;3.73;;
18449;SDS011;9354;50.194;7.690;2023-04-25T10:38:41;11.03;;;3.20;;
18449;SDS011;9354;50.194;7.690;2023-04-25T10:41:10;15.10;;;3.40;;
18449;SDS011;9354;50.194;7.690;2023-04-25T10:43:40;8.27;;;3.13;;
18449;SDS011;9354;50.194;7.690;2023-04-25T10:46:16;10.90;;;3.13;;
18449;SDS011;9354;50.194;7.690;2023-04-25T10:48:45;19.97;;;3.40;;
18449;SDS011;9354;50.194;7.690;2023-04-25T10:51:18;13.40;;;3.10;;
18449;SDS011;9354;50.194;7.690;2023-04-25T10:53:56;11.20;;;3.30;;
18449;SDS011;9354;50.194;7.690;2023-04-25T10:56:25;11.93;;;3.20;;
18449;SDS011;9354;50.194;7.690;2023-04-25T10:59:04;8.10;;;2.73;;
18449;SDS011;9354;50.194;7.690;2023-04-25T11:01:37;12.80;;;2.70;;
18449;SDS011;9354;50.194;7.690;2023-04-25T11:04:06;13.97;;;3.23;;
18449;SDS011;9354;50.194;7.690;2023-04-25T11:06:46;11.07;;;3.20;;
18449;SDS011;9354;50.194;7.690;2023-04-25T11:09:25;8.67;;;3.07;;
18449;SDS011;9354;50.194;7.690;2023-04-25T11:11:53;10.73;;;3.30;;
18449;SDS011;9354;50.194;7.690;2023-04-25T11:14:24;16.53;;;4.87;;
18449;SDS011;9354;50.194;7.690;2023-04-25T11:16:52;14.17;;;5.20;;
18449;SDS011;9354;50.194;7.690;2023-04-25T11:19:21;17.60;;;7.17;;
18449;SDS011;9354;50.194;7.690;2023-04-25T11:21:48;10.13;;;3.30;;
18449;SDS011;9354;50.194;7.690;2023-04-25T11:24:16;7.90;;;2.37;;
18449;SDS011;9354;50.194;7.690;2023-04-25T11:26:46;9.03;;;2.53;;
18449;SDS011;9354;50.194;7.690;2023-04-25T11:29:14;12.27;;;4.00;;
18449;SDS011;9354;50.194;7.690;2023-04-25T11:31:44;9.87;;;2.97;;
18449;SDS011;9354;50.194;7.690;2023-04-25T11:34:12;11.27;;;2.27;;
18449;SDS011;9354;50.194;7.690;2023-04-25T11:36:44;7.77;;;2.20;;
18449;SDS011;9354;50.194;7.690;2023-04-25T11:39:12;9.67;;;2.73;;
18449;SDS011;9354;50.194;7.690;2023-04-25T11:41:40;6.77;;;2.10;;
18449;SDS011;9354;50.194;7.690;2023-04-25T11:44:08;8.33;;;1.93;;
18449;SDS011;9354;50.194;7.690;2023-04-25T11:46:36;9.07;;;2.10;;
18449;SDS011;9354;50.194;7.690;2023-04-25T11:49:05;7.77;;;2.60;;
18449;SDS011;9354;50.194;7.690;2023-04-25T11:51:37;11.43;;;3.63;;
18449;SDS011;9354;50.194;7.690;2023-04-25T11:54:06;5.97;;;2.70;;
18449;SDS011;9354;50.194;7.690;2023-04-25T11:56:33;9.57;;;2.83;;
18449;SDS011;9354;50.194;7.690;2023-04-25T11:59:01;8.07;;;2.50;;
18449;SDS011;9354;50.194;7.690;2023-04-25T12:01:30;15.27;;;3.10;;
18449;SDS011;9354;50.194;7.690;2023-04-25T12:03:58;7.47;;;2.60;;
18449;SDS011;9354;50.194;7.690;2023-04-25T12:06:38;9.87;;;3.80;;
18449;SDS011;9354;50.194;7.690;2023-04-25T12:09:07;6.50;;;2.73;;
18449;SDS011;9354;50.194;7.690;2023-04-25T12:11:40;8.17;;;2.67;;
18449;SDS011;9354;50.194;7.690;2023-04-25T12:14:08;9.10;;;3.77;;
18449;SDS011;9354;50.194;7.690;2023-04-25T12:16:42;12.60;;;4.17;;
18449;SDS011;9354;50.194;7.690;2023-04-25T12:19:13;9.50;;;2.40;;
18449;SDS011;9354;50.194;7.690;2023-04-25T12:21:42;8.87;;;2.20;;
18449;SDS011;9354;50.194;7.690;2023-04-25T12:24:10;8.77;;;2.10;;
18449;SDS011;9354;50.194;7.690;2023-04-25T12:26:48;8.63;;;2.10;;
18449;SDS011;9354;50.194;7.690;2023-04-25T12:29:18;10.13;;;3.33;;
18449;SDS011;9354;50.194;7.690;2023-04-25T12:31:46;6.97;;;2.30;;
18449;SDS011;9354;50.194;7.690;2023-04-25T12:34:14;9.43;;;2.47;;
18449;SDS011;9354;50.194;7.690;2023-04-25T12:36:43;8.17;;;3.10;;
18449;SDS011;9354;50.194;7.690;2023-04-25T12:39:14;9.30;;;2.20;;
18449;SDS011;9354;50.194;7.690;2023-04-25T12:41:42;11.10;;;2.73;;
18449;SDS011;9354;50.194;7.690;2023-04-25T12:44:10;5.70;;;2.23;;
18449;SDS011;9354;50.194;7.690;2023-04-25T12:46:37;8.10;;;2.47;;
18449;SDS011;9354;50.194;7.690;2023-04-25T12:49:06;8.33;;;2.40;;
18449;SDS011;9354;50.194;7.690;2023-04-25T12:51:34;3.80;;;2.13;;
18449;SDS011;9354;50.194;7.690;2023-04-25T12:54:04;8.87;;;2.30;;
18449;SDS011;9354;50.194;7.690;2023-04-25T12:56:32;8.23;;;2.27;;
18449;SDS011;9354;50.194;7.690;2023-04-25T12:59:00;6.93;;;1.83;;
18449;SDS011;9354;50.194;7.690;2023-04-25T13:01:29;23.87;;;10.73;;
18449;SDS011;9354;50.194;7.690;2023-04-25T13:03:57;13.23;;;3.50;;
18449;SDS011;9354;50.194;7.690;2023-04-25T13:06:24;10.07;;;3.23;;
18449;SDS011;9354;50.194;7.690;2023-04-25T13:08:52;21.50;;;7.80;;
18449;SDS011;9354;50.194;7.690;2023-04-25T13:11:21;7.60;;;2.63;;
18449;SDS011;9354;50.194;7.690;2023-04-25T13:13:48;10.00;;;3.00;;
18449;SDS011;9354;50.194;7.690;2023-04-25T13:16:16;11.13;;;2.60;;
18449;SDS011;9354;50.194;7.690;2023-04-25T13:18:46;11.17;;;2.30;;
18449;SDS011;9354;50.194;7.690;2023-04-25T13:21:13;7.83;;;2.40;;
18449;SDS011;9354;50.194;7.690;2023-04-25T13:23:41;7.07;;;1.90;;
18449;SDS011;9354;50.194;7.690;2023-04-25T13:26:08;5.47;;;2.23;;
18449;SDS011;9354;50.194;7.690;2023-04-25T13:28:37;12.17;;;2.30;;
18449;SDS011;9354;50.194;7.690;2023-04-25T13:31:06;5.77;;;2.03;;
18449;SDS011;9354;50.194;7.690;2023-04-25T13:33:33;5.67;;;2.00;;
18449;SDS011;9354;50.194;7.690;2023-04-25T13:36:00;12.30;;;2.87;;
18449;SDS011;9354;50.194;7.690;2023-04-25T13:38:28;10.03;;;2.30;;
18449;SDS011;9354;50.194;7.690;2023-04-25T13:40:56;8.43;;;2.07;;
18449;SDS011;9354;50.194;7.690;2023-04-25T13:43:24;12.63;;;2.03;;
18449;SDS011;9354;50.194;7.690;2023-04-25T13:45:53;6.87;;;1.90;;
18449;SDS011;9354;50.194;7.690;2023-04-25T13:48:21;10.33;;;3.10;;
18449;SDS011;9354;50.194;7.690;2023-04-25T13:50:48;9.67;;;2.17;;
18449;SDS011;9354;50.194;7.690;2023-04-25T13:53:16;7.67;;;3.20;;
18449;SDS011;9354;50.194;7.690;2023-04-25T13:55:43;11.20;;;2.47;;
18449;SDS011;9354;50.194;7.690;2023-04-25T13:58:11;6.17;;;2.17;;
18449;SDS011;9354;50.194;7.690;2023-04-25T14:00:38;11.67;;;2.20;;
18449;SDS011;9354;50.194;7.690;2023-04-25T14:03:10;11.30;;;2.33;;
18449;SDS011;9354;50.194;7.690;2023-04-25T14:05:37;11.33;;;2.40;;
18449;SDS011;9354;50.194;7.690;2023-04-25T14:08:05;8.70;;;2.13;;
18449;SDS011;9354;50.194;7.690;2023-04-25T14:10:34;11.73;;;2.50;;
18449;SDS011;9354;50.194;7.690;2023-04-25T14:13:02;11.53;;;2.20;;
18449;SDS011;9354;50.194;7.690;2023-04-25T14:15:30;10.70;;;2.57;;
18449;SDS011;9354;50.194;7.690;2023-04-25T14:17:58;10.27;;;2.40;;
18449;SDS011;9354;50.194;7.690;2023-04-25T14:20:28;5.73;;;2.03;;
18449;SDS011;9354;50.194;7.690;2023-04-25T14:22:56;9.63;;;2.97;;
18449;SDS011;9354;50.194;7.690;2023-04-25T14:25:24;6.63;;;2.13;;
18449;SDS011;9354;50.194;7.690;2023-04-25T14:27:51;8.37;;;1.97;;
18449;SDS011;9354;50.194;7.690;2023-04-25T14:30:19;10.47;;;2.10;;
18449;SDS011;9354;50.194;7.690;2023-04-25T14:32:48;8.50;;;2.47;;
18449;SDS011;9354;50.194;7.690;2023-04-25T14:35:15;8.17;;;2.20;;
18449;SDS011;9354;50.194;7.690;2023-04-25T14:37:44;12.33;;;2.10;;
18449;SDS011;9354;50.194;7.690;2023-04-25T14:40:12;6.90;;;2.47;;
18449;SDS011;9354;50.194;7.690;2023-04-25T14:42:41;7.63;;;1.97;;
18449;SDS011;9354;50.194;7.690;2023-04-25T14:45:09;9.33;;;2.47;;
18449;SDS011;9354;50.194;7.690;2023-04-25T14:47:37;6.23;;;2.10;;
18449;SDS011;9354;50.194;7.690;2023-04-25T14:50:05;7.37;;;2.53;;
18449;SDS011;9354;50.194;7.690;2023-04-25T14:52:34;11.50;;;1.90;;
18449;SDS011;9354;50.194;7.690;2023-04-25T14:55:03;4.90;;;1.83;;
18449;SDS011;9354;50.194;7.690;2023-04-25T14:57:31;8.53;;;2.50;;